Identifier: KMEV

AWOS Phone: 775-782-6264

AWOS Radio Freq: 119.325

Latitude: 39.00000000

Longitude: -119.75190000

Current Conditions

Updated: 1:17 AM GMT on 25 Mar 2019

  • Wind Speed (2min):
    6 Knots
  • Wind Direction (2min):
    290 Degrees
  • Temperature (10min):
    12 Celsius
  • Dew Point (10min):
    -9 Celsius
  • Humidity:
    23 Percent
  • Altimeter:
    30.18 inHG
  • Density Altitude:
  • Visibility:
    10 Miles
  • Clouds:
    CLR
  • Rainfall Current Hour:
    0 Inches
METAR: METAR KMEV 250120Z AUTO 30006KT 10SM CLR 12/M09 A3018 RMK AO2